Terminal Aerodrome Forecast
Issued by NWS

Home | Current Version | Previous Version | Text Only | Print | Product List | Glossary On
Versions: 1 2 3 4 5 6 7 8 9 10 11 12 13 14 15 16 17 18 19 20
000
FTUS42 TJSJ 182300 CCA
TAFJSJ
TAF COR
TJSJ 182328Z 1900/1924 07009KT P6SM -RA FEW025 SCT040 BKN080
      TEMPO 1900/1902 VRB12KT 5SM SHRA BKN025
     FM190430 08006KT P6SM VCSH SCT025 SCT040 SCT080 PROB30
      1909/1913 VRB12KT -SHRA BKN025
     FM191450 05011KT P6SM FEW025 SCT070=

USA.gov is the U.S. government's official web portal to all federal, state and local government web resources and services.